METAR Data
IDs: Format: Raw Decoded Include TAF

Data at: 2142 UTC 25 Apr 2019

LTAF 252120Z 10004KT CAVOK 17/08 Q1019 NOSIG RMK RWY23 12004KT